Time;durP1;ratioP1;P1;durP2;ratioP2;P2;SDS_P1;SDS_P2;PMS_P1;PMS_P2;Temp;Humidity;BMP_temperature;BMP_pressure;BME280_temperature;BME280_humidity;BME280_pressure;Samples;Min_cycle;Max_cycle;Signal;HPM_P1;HPM_P2
2022/10/05 00:01:00;;;;;;;4.53;3.33;;;;;;;11.29;100.00;101435.19;4998079;28;20226;-51
2022/10/05 00:03:32;;;;;;;3.73;2.87;;;;;;;11.41;100.00;101437.06;5003061;28;20260;-52
2022/10/05 00:05:59;;;;;;;4.03;3.00;;;;;;;11.35;100.00;101447.53;5007953;28;20237;-51
2022/10/05 00:08:30;;;;;;;5.10;3.90;;;;;;;11.35;100.00;101437.00;5011764;28;20768;-51
2022/10/05 00:10:57;;;;;;;8.53;3.93;;;;;;;11.22;100.00;101443.91;4994839;28;20236;-51
2022/10/05 00:13:27;;;;;;;3.37;3.07;;;;;;;11.27;100.00;101423.81;5008991;28;20244;-52
2022/10/05 00:15:58;;;;;;;6.37;3.67;;;;;;;11.22;100.00;101415.00;5007921;28;20264;-50
2022/10/05 00:18:26;;;;;;;4.37;3.37;;;;;;;11.22;100.00;101417.63;5004927;28;20236;-51
2022/10/05 00:20:53;;;;;;;7.47;3.40;;;;;;;11.15;100.00;101432.47;5014115;28;20236;-51
2022/10/05 00:23:22;;;;;;;3.40;3.10;;;;;;;11.22;100.00;101439.53;5030044;28;20232;-50
2022/10/05 00:25:48;;;;;;;5.03;3.63;;;;;;;11.18;100.00;101426.38;5028805;28;20235;-51
2022/10/05 00:28:17;;;;;;;5.10;3.53;;;;;;;11.22;100.00;101428.13;5028627;28;20308;-52
2022/10/05 00:30:45;;;;;;;5.33;3.70;;;;;;;11.18;100.00;101436.88;5022134;28;20290;-51
2022/10/05 00:33:12;;;;;;;4.13;3.40;;;;;;;11.17;100.00;101443.00;5008034;28;20237;-52
2022/10/05 00:35:38;;;;;;;7.30;3.93;;;;;;;11.07;100.00;101433.28;5007692;28;20241;-54
2022/10/05 00:38:05;;;;;;;3.73;3.43;;;;;;;11.09;100.00;101426.28;5001123;28;20248;-52
2022/10/05 00:40:37;;;;;;;3.40;3.10;;;;;;;10.97;100.00;101433.19;5004187;28;20244;-51
2022/10/05 00:43:22;;;;;;;7.10;3.77;;;;;;;10.96;100.00;101423.56;5015031;28;20232;-51
2022/10/05 00:45:51;;;;;;;6.73;2.90;;;;;;;10.87;100.00;101420.84;5022785;28;20644;-51
2022/10/05 00:48:25;;;;;;;4.53;3.90;;;;;;;10.85;100.00;101404.22;5023522;28;20268;-51
2022/10/05 00:51:09;;;;;;;3.30;3.00;;;;;;;10.85;100.00;101409.47;5019568;28;20240;-52
2022/10/05 00:53:42;;;;;;;6.40;3.67;;;;;;;10.73;100.00;101404.97;5037938;28;20233;-52
2022/10/05 00:56:20;;;;;;;4.23;3.73;;;;;;;10.75;100.00;101412.88;5020980;28;20272;-52
2022/10/05 00:58:55;;;;;;;4.53;3.40;;;;;;;10.78;100.00;101399.78;5027355;28;20232;-52
2022/10/05 01:01:28;;;;;;;4.83;3.03;;;;;;;10.77;100.00;101390.09;5031050;28;20240;-52
2022/10/05 01:04:00;;;;;;;5.10;3.60;;;;;;;10.78;100.00;101391.03;5033087;28;20327;-51
2022/10/05 01:06:33;;;;;;;4.03;3.67;;;;;;;10.84;100.00;101397.19;5025077;28;20232;-52
2022/10/05 01:09:08;;;;;;;3.63;3.33;;;;;;;10.73;100.00;101393.56;5029163;28;20229;-51
2022/10/05 01:11:39;;;;;;;4.37;3.60;;;;;;;10.69;100.00;101386.53;5019222;28;20697;-51
2022/10/05 01:14:13;;;;;;;4.20;3.57;;;;;;;10.66;100.00;101394.41;5032300;28;20236;-51
2022/10/05 01:16:50;;;;;;;4.33;3.93;;;;;;;10.73;100.00;101394.47;5028996;28;20232;-51
2022/10/05 01:19:31;;;;;;;5.90;3.57;;;;;;;10.73;100.00;101390.94;5027275;28;20298;-51
2022/10/05 01:22:06;;;;;;;4.90;3.67;;;;;;;10.74;100.00;101385.72;5020593;28;20256;-50
2022/10/05 01:24:49;;;;;;;7.70;4.07;;;;;;;10.71;100.00;101382.19;5034251;28;20873;-51
2022/10/05 01:27:31;;;;;;;5.07;3.47;;;;;;;10.72;100.00;101361.19;5015427;28;20240;-51
2022/10/05 01:30:04;;;;;;;4.13;3.43;;;;;;;10.70;100.00;101367.28;5009393;28;20240;-52
2022/10/05 01:32:34;;;;;;;6.00;4.50;;;;;;;10.78;100.00;101377.88;5018346;28;20232;-52
2022/10/05 01:35:07;;;;;;;4.13;3.40;;;;;;;10.68;100.00;101382.16;5023768;28;20228;-52
2022/10/05 01:37:42;;;;;;;8.73;3.80;;;;;;;10.63;100.00;101379.47;5013727;28;20752;-54
2022/10/05 01:40:12;;;;;;;5.33;3.33;;;;;;;10.67;100.00;101380.38;5011338;28;20256;-52
2022/10/05 01:42:49;;;;;;;5.77;3.33;;;;;;;10.69;100.00;101383.91;5010548;28;20312;-52
2022/10/05 01:45:24;;;;;;;4.90;3.13;;;;;;;10.70;100.00;101380.41;5026513;28;20263;-51
2022/10/05 01:47:53;;;;;;;3.83;3.23;;;;;;;10.66;100.00;101379.50;5019748;28;20220;-52
2022/10/05 01:50:27;;;;;;;7.87;3.93;;;;;;;10.67;100.00;101386.53;5023556;28;20713;-51
2022/10/05 01:53:00;;;;;;;3.70;3.40;;;;;;;10.61;100.00;101381.22;5028512;28;20251;-50
2022/10/05 01:55:32;;;;;;;4.27;3.80;;;;;;;10.58;100.00;101385.56;5024741;28;20243;-51
2022/10/05 01:58:08;;;;;;;6.07;4.33;;;;;;;10.64;100.00;101390.88;5026215;28;20228;-52
2022/10/05 02:00:38;;;;;;;5.33;3.67;;;;;;;10.52;100.00;101395.13;5027613;28;20232;-51
2022/10/05 02:03:09;;;;;;;4.10;3.63;;;;;;;10.52;100.00;101396.88;5021773;28;20251;-51
2022/10/05 02:05:41;;;;;;;8.93;3.30;;;;;;;10.62;100.00;101392.59;5017904;28;20237;-52
2022/10/05 02:08:11;;;;;;;4.30;3.53;;;;;;;10.47;100.00;101398.59;5022977;28;20239;-52
2022/10/05 02:10:41;;;;;;;7.00;4.27;;;;;;;10.44;100.00;101399.44;5031812;28;20255;-51
2022/10/05 02:13:14;;;;;;;5.37;3.60;;;;;;;10.48;100.00;101402.97;5018594;28;20240;-51
2022/10/05 02:15:43;;;;;;;6.13;4.53;;;;;;;10.42;100.00;101395.03;5026024;28;20232;-52
2022/10/05 02:18:14;;;;;;;4.37;3.57;;;;;;;10.40;100.00;101392.41;5029906;28;20236;-52
2022/10/05 02:20:42;;;;;;;3.60;3.03;;;;;;;10.32;100.00;101404.56;5036561;28;20243;-51
2022/10/05 02:23:12;;;;;;;5.17;4.13;;;;;;;10.30;100.00;101397.53;5044300;28;20232;-51
2022/10/05 02:25:40;;;;;;;6.00;3.77;;;;;;;10.26;100.00;101394.00;5025751;28;20232;-51
2022/10/05 02:28:12;;;;;;;3.70;3.27;;;;;;;10.29;100.00;101393.16;5018676;28;20237;-52
2022/10/05 02:30:42;;;;;;;6.57;3.50;;;;;;;10.24;100.00;101391.31;5015774;28;20237;-52
2022/10/05 02:33:11;;;;;;;7.43;3.43;;;;;;;10.22;100.00;101394.81;5023015;28;20236;-52
2022/10/05 02:35:37;;;;;;;4.13;3.03;;;;;;;10.22;100.00;101394.81;5016637;28;20245;-51
2022/10/05 02:38:10;;;;;;;3.90;3.53;;;;;;;10.25;100.00;101392.22;5015044;28;20715;-51
2022/10/05 02:40:46;;;;;;;6.63;3.57;;;;;;;10.20;100.00;101399.13;5022092;28;20504;-52
2022/10/05 02:43:21;;;;;;;3.60;3.30;;;;;;;10.24;100.00;101399.19;5023970;28;20236;-50
2022/10/05 02:45:53;;;;;;;4.90;4.10;;;;;;;10.16;100.00;101390.34;5025870;28;20228;-51
2022/10/05 02:48:28;;;;;;;4.50;3.40;;;;;;;10.14;100.00;101391.19;5022965;28;20334;-51
2022/10/05 02:50:59;;;;;;;7.63;3.17;;;;;;;10.03;100.00;101391.94;5011795;28;20237;-52
2022/10/05 02:53:32;;;;;;;3.63;3.20;;;;;;;10.06;100.00;101391.13;5021989;28;20278;-51
2022/10/05 02:56:07;;;;;;;4.50;3.33;;;;;;;10.07;100.00;101382.38;5017047;28;20243;-50
2022/10/05 02:58:40;;;;;;;5.37;3.63;;;;;;;10.00;100.00;101386.69;5016728;28;20241;-52
2022/10/05 03:01:11;;;;;;;5.90;3.40;;;;;;;10.04;100.00;101377.13;5016834;28;20236;-50
2022/10/05 03:03:42;;;;;;;4.60;3.40;;;;;;;10.05;100.00;101381.50;5018062;28;20710;-51
2022/10/05 03:06:15;;;;;;;8.70;3.77;;;;;;;10.25;100.00;101382.63;5026151;28;20233;-50
2022/10/05 03:08:44;;;;;;;4.43;4.00;;;;;;;10.30;100.00;101380.03;5012654;28;20236;-51
2022/10/05 03:11:18;;;;;;;4.13;3.60;;;;;;;10.17;100.00;101375.50;5023537;28;20263;-51
2022/10/05 03:13:51;;;;;;;6.77;4.10;;;;;;;10.21;100.00;101374.66;5020793;28;20265;-50
2022/10/05 03:16:34;;;;;;;6.83;3.70;;;;;;;10.10;100.00;101371.03;5024534;28;20323;-52
2022/10/05 03:19:09;;;;;;;3.53;3.20;;;;;;;10.12;100.00;101370.19;5018830;28;20236;-51
2022/10/05 03:21:46;;;;;;;3.87;3.40;;;;;;;10.08;100.00;101373.66;5029354;28;20767;-53
2022/10/05 03:24:31;;;;;;;7.07;3.73;;;;;;;10.11;100.00;101365.81;5013668;28;20236;-53
2022/10/05 03:27:03;;;;;;;5.33;3.43;;;;;;;10.15;100.00;101364.13;5012520;28;20249;-52
2022/10/05 03:29:38;;;;;;;6.00;3.73;;;;;;;10.17;100.00;101357.13;5025270;28;20228;-52
2022/10/05 03:32:14;;;;;;;7.23;3.50;;;;;;;10.17;100.00;101351.88;5027646;28;20224;-52
2022/10/05 03:34:46;;;;;;;4.27;3.53;;;;;;;10.19;100.00;101350.16;5023824;28;20242;-53
2022/10/05 03:37:17;;;;;;;5.50;3.70;;;;;;;10.27;100.00;101343.25;5012880;28;20737;-52
2022/10/05 03:39:49;;;;;;;5.53;3.67;;;;;;;10.22;100.00;101337.94;5045325;28;20647;-52
2022/10/05 03:42:21;;;;;;;7.90;3.77;;;;;;;10.18;100.00;101337.88;5027249;28;20230;-52
2022/10/05 03:44:55;;;;;;;4.33;3.93;;;;;;;10.27;100.00;101345.88;5023620;28;20236;-52
2022/10/05 03:47:29;;;;;;;5.03;3.70;;;;;;;10.33;100.00;101338.09;5024987;28;20709;-52
2022/10/05 03:50:22;;;;;;;3.43;2.87;;;;;;;10.31;100.00;101333.69;5037084;28;20764;-52
2022/10/05 03:52:51;;;;;;;4.60;3.47;;;;;;;10.26;100.00;101333.63;5019434;28;20604;-51
2022/10/05 03:55:22;;;;;;;5.00;3.53;;;;;;;10.25;100.00;101329.22;5024534;28;20244;-52
2022/10/05 03:57:50;;;;;;;3.27;2.97;;;;;;;10.23;100.00;101317.81;5016653;28;20241;-52
2022/10/05 04:00:22;;;;;;;7.50;3.63;;;;;;;10.39;100.00;101311.91;4993058;28;20727;-52
2022/10/05 04:02:51;;;;;;;3.73;3.10;;;;;;;10.38;100.00;101319.75;5010193;28;20332;-52
2022/10/05 04:05:20;;;;;;;6.40;3.17;;;;;;;10.35;100.00;101320.59;5035031;28;20240;-53
2022/10/05 04:07:51;;;;;;;5.43;3.83;;;;;;;10.38;100.00;101323.25;5009706;28;20718;-52
2022/10/05 04:10:22;;;;;;;4.27;3.40;;;;;;;10.33;100.00;101321.47;5027921;28;20266;-51
2022/10/05 04:12:52;;;;;;;3.87;3.47;;;;;;;10.35;100.00;101317.97;5022604;28;20228;-51
2022/10/05 04:15:24;;;;;;;3.60;3.30;;;;;;;10.34;100.00;101321.47;5020012;28;20676;-52
2022/10/05 04:17:55;;;;;;;4.50;3.33;;;;;;;10.30;100.00;101313.56;5035911;28;20233;-52
2022/10/05 04:20:25;;;;;;;4.77;3.40;;;;;;;10.33;100.00;101316.22;5028660;28;20773;-51
2022/10/05 04:22:57;;;;;;;4.67;3.13;;;;;;;10.33;100.00;101319.72;5015444;28;20235;-51
2022/10/05 04:25:27;;;;;;;7.07;3.73;;;;;;;10.26;100.00;101315.28;5026055;28;20362;-51
2022/10/05 04:28:00;;;;;;;4.53;3.30;;;;;;;10.32;100.00;101323.22;5008741;28;20703;-52
2022/10/05 04:30:29;;;;;;;4.93;3.40;;;;;;;10.28;100.00;101324.03;5018680;28;20366;-51
2022/10/05 04:32:57;;;;;;;5.27;3.70;;;;;;;10.28;100.00;101318.78;5018050;28;20341;-51
2022/10/05 04:35:57;;;;;;;3.63;3.30;;;;;;;10.29;100.00;101317.06;5026912;28;20285;-52
2022/10/05 04:38:31;;;;;;;4.80;2.90;;;;;;;10.28;100.00;101316.16;5008918;28;20244;-52
2022/10/05 04:41:09;;;;;;;4.87;3.50;;;;;;;10.33;100.00;101330.22;5006314;28;20599;-52
2022/10/05 04:43:44;;;;;;;6.27;3.53;;;;;;;10.29;100.00;101330.19;5019055;28;20234;-52
2022/10/05 04:46:19;;;;;;;4.13;3.60;;;;;;;10.34;100.00;101328.47;5010926;28;20264;-51
2022/10/05 04:48:56;;;;;;;6.87;3.27;;;;;;;10.25;100.00;101330.16;4998549;28;20286;-51
2022/10/05 04:51:34;;;;;;;4.13;3.73;;;;;;;10.25;100.00;101334.47;5003224;28;20825;-51
2022/10/05 04:54:08;;;;;;;5.17;3.50;;;;;;;10.28;100.00;101326.66;5011006;28;20263;-51
2022/10/05 04:56:39;;;;;;;3.50;3.20;;;;;;;10.23;100.00;101320.44;4995638;28;20307;-53
2022/10/05 04:59:40;;;;;;;13.77;3.60;;;;;;;10.31;100.00;101326.69;5006687;28;20241;-53
2022/10/05 05:02:16;;;;;;;5.13;3.30;;;;;;;10.24;100.00;101316.94;4946603;28;21096;-51
2022/10/05 05:04:55;;;;;;;4.40;4.00;;;;;;;10.27;100.00;101317.91;4997573;28;20281;-53
2022/10/05 05:07:31;;;;;;;4.83;3.87;;;;;;;10.32;100.00;101315.34;5006521;28;20269;-52
2022/10/05 05:10:40;;;;;;;5.20;3.50;;;;;;;10.17;100.00;101312.50;4998653;28;20290;-51
2022/10/05 05:13:20;;;;;;;4.57;3.67;;;;;;;10.18;100.00;101311.63;5005899;28;20244;-52
2022/10/05 05:15:50;;;;;;;5.50;3.57;;;;;;;10.12;100.00;101325.59;5018026;28;20292;-52
2022/10/05 05:18:40;;;;;;;5.33;3.53;;;;;;;10.18;100.00;101322.13;5021067;28;20236;-52
2022/10/05 05:21:13;;;;;;;3.90;3.50;;;;;;;10.13;100.00;101321.22;5016299;28;20243;-53
2022/10/05 05:23:42;;;;;;;4.47;3.77;;;;;;;10.20;100.00;101317.78;5037700;28;20287;-51
2022/10/05 05:26:15;;;;;;;7.33;3.30;;;;;;;10.28;100.00;101324.03;5012203;28;20245;-51
2022/10/05 05:28:48;;;;;;;6.53;3.23;;;;;;;10.28;100.00;101310.91;5003195;28;20241;-53
2022/10/05 05:31:24;;;;;;;4.57;4.07;;;;;;;10.24;100.00;101306.47;5006572;28;20241;-52
2022/10/05 05:33:58;;;;;;;5.90;3.80;;;;;;;10.20;100.00;101299.44;5003157;28;20233;-52
2022/10/05 05:36:37;;;;;;;4.73;4.17;;;;;;;10.22;100.00;101292.47;5015664;28;20323;-53
2022/10/05 05:39:24;;;;;;;4.50;3.60;;;;;;;10.25;100.00;101292.50;5021642;28;20702;-51
2022/10/05 05:41:59;;;;;;;3.07;2.87;;;;;;;10.27;100.00;101296.03;5017173;28;20260;-52
2022/10/05 05:44:27;;;;;;;5.83;3.87;;;;;;;10.40;100.00;101292.66;5017775;28;20316;-51
2022/10/05 05:46:59;;;;;;;5.70;4.27;;;;;;;10.34;100.00;101297.84;5023005;28;20250;-52
2022/10/05 05:49:36;;;;;;;6.00;3.90;;;;;;;10.37;100.00;101291.75;5022296;28;20221;-51
2022/10/05 05:52:06;;;;;;;7.37;4.90;;;;;;;10.39;100.00;101304.03;5026751;28;20255;-51
2022/10/05 05:54:36;;;;;;;4.83;4.10;;;;;;;10.45;100.00;101314.56;5014348;28;20245;-51
2022/10/05 05:57:10;;;;;;;4.83;4.03;;;;;;;10.47;100.00;101304.97;5004877;28;20241;-52
2022/10/05 05:59:49;;;;;;;4.57;4.13;;;;;;;10.46;100.00;101303.22;5011124;28;20228;-52
2022/10/05 06:02:19;;;;;;;5.70;4.47;;;;;;;10.48;100.00;101293.59;4997608;28;20668;-52
2022/10/05 06:04:50;;;;;;;6.07;4.17;;;;;;;10.56;100.00;101303.28;4990504;28;20723;-52
2022/10/05 06:07:21;;;;;;;6.87;4.97;;;;;;;10.52;100.00;101300.63;5003573;28;20662;-52
2022/10/05 06:09:50;;;;;;;4.40;4.00;;;;;;;10.60;100.00;101300.69;5002098;28;20257;-52
2022/10/05 06:12:21;;;;;;;4.60;4.20;;;;;;;10.67;100.00;101312.09;5009076;28;20237;-52
2022/10/05 06:14:51;;;;;;;5.70;4.07;;;;;;;10.60;100.00;101308.59;5017105;28;20902;-53
2022/10/05 06:17:19;;;;;;;6.97;4.37;;;;;;;10.78;100.00;101304.34;5025297;28;20245;-52
2022/10/05 06:19:48;;;;;;;5.80;4.33;;;;;;;10.68;100.00;101320.00;5021360;28;20236;-51
2022/10/05 06:22:21;;;;;;;5.23;4.33;;;;;;;10.71;100.00;101306.03;5025401;28;20235;-52
2022/10/05 06:24:56;;;;;;;6.07;3.73;;;;;;;10.74;100.00;101308.69;5009767;28;20233;-52
2022/10/05 06:27:27;;;;;;;6.97;4.47;;;;;;;10.70;100.00;101314.75;5004805;28;20263;-52
2022/10/05 06:30:06;;;;;;;5.20;3.80;;;;;;;10.71;100.00;101319.16;5004688;28;20256;-53
2022/10/05 06:32:35;;;;;;;5.43;4.57;;;;;;;10.69;100.00;101331.41;5002547;28;20229;-50
2022/10/05 06:35:12;;;;;;;6.80;5.43;;;;;;;10.71;100.00;101319.16;5007352;28;20232;-51
2022/10/05 06:37:56;;;;;;;6.53;4.20;;;;;;;10.76;100.00;101322.69;4998904;28;20818;-52
2022/10/05 06:40:31;;;;;;;4.73;4.33;;;;;;;10.84;100.00;101318.38;4997949;28;20230;-52
2022/10/05 06:43:12;;;;;;;6.03;4.30;;;;;;;10.77;100.00;101329.69;4999114;28;20727;-51
2022/10/05 06:45:51;;;;;;;5.23;4.17;;;;;;;10.79;100.00;101320.09;5009990;28;20951;-52
2022/10/05 06:48:25;;;;;;;4.43;3.83;;;;;;;10.90;100.00;101325.44;5001914;28;20257;-52
2022/10/05 06:50:57;;;;;;;4.47;3.77;;;;;;;10.93;100.00;101325.44;5002939;28;20229;-53
2022/10/05 06:53:30;;;;;;;8.97;4.20;;;;;;;10.99;100.00;101321.13;5005320;28;20241;-51
2022/10/05 06:56:01;;;;;;;5.30;4.17;;;;;;;11.07;100.00;101328.19;5004111;28;20239;-52
2022/10/05 06:58:48;;;;;;;5.20;3.40;;;;;;;11.10;100.00;101328.19;5008968;28;20611;-52
2022/10/05 07:01:22;;;;;;;7.87;4.37;;;;;;;11.10;100.00;101328.19;5020947;28;20236;-52
2022/10/05 07:04:02;;;;;;;6.40;4.23;;;;;;;11.17;100.00;101330.88;5019037;28;20262;-52
2022/10/05 07:06:34;;;;;;;4.10;3.67;;;;;;;11.15;100.00;101329.09;5022702;28;20236;-52
2022/10/05 07:09:18;;;;;;;5.03;4.00;;;;;;;11.09;100.00;101331.69;5021392;28;20271;-52
2022/10/05 07:11:55;;;;;;;4.77;3.53;;;;;;;11.10;100.00;101328.19;5023372;28;20224;-52
2022/10/05 07:14:36;;;;;;;7.90;4.00;;;;;;;11.18;100.00;101335.25;5024361;28;20327;-52
2022/10/05 07:17:16;;;;;;;4.83;3.97;;;;;;;11.23;100.00;101335.25;5016451;28;20317;-51
2022/10/05 07:19:46;;;;;;;5.80;3.87;;;;;;;11.28;100.00;101333.56;5027868;28;20660;-51
2022/10/05 07:22:32;;;;;;;5.97;3.57;;;;;;;11.33;100.00;101338.84;5019728;28;20302;-53
2022/10/05 07:25:07;;;;;;;4.77;3.53;;;;;;;11.39;100.00;101331.88;5019921;28;20236;-53
2022/10/05 07:27:36;;;;;;;3.83;3.53;;;;;;;11.46;100.00;101333.66;5005415;28;20252;-52
2022/10/05 07:30:05;;;;;;;3.27;2.93;;;;;;;11.52;100.00;101339.84;5001063;28;20229;-52
2022/10/05 07:32:35;;;;;;;5.73;3.67;;;;;;;11.59;100.00;101342.50;5015606;28;20323;-52
2022/10/05 07:37:52;;;;;;;5.07;3.33;;;;;;;11.73;100.00;101333.78;5018896;28;20618;-53
2022/10/05 07:38:00;;;;;;;9.73;3.63;;;;;;;11.86;100.00;101335.59;5022572;28;20228;-53
2022/10/05 07:40:29;;;;;;;7.07;3.63;;;;;;;12.01;100.00;101340.06;5017302;28;20232;-52
2022/10/05 07:43:04;;;;;;;3.93;3.20;;;;;;;12.04;100.00;101355.81;5025117;28;20232;-53
2022/10/05 07:45:37;;;;;;;8.23;3.70;;;;;;;12.11;100.00;101344.44;5017512;28;20356;-52
2022/10/05 07:48:10;;;;;;;8.03;3.10;;;;;;;12.22;100.00;101348.00;5004072;28;20245;-52
2022/10/05 07:50:44;;;;;;;8.73;3.78;;;;;;;12.26;100.00;101346.25;5000985;28;20261;-51
2022/10/05 07:53:15;;;;;;;3.42;3.10;;;;;;;12.17;100.00;101329.53;5029869;28;20232;-52
2022/10/05 07:55:48;;;;;;;4.63;4.03;;;;;;;12.22;100.00;101332.19;5018223;28;20232;-52
2022/10/05 07:58:20;;;;;;;4.57;2.85;;;;;;;12.27;100.00;101340.09;5014774;28;20236;-52
2022/10/05 08:00:58;;;;;;;5.63;2.78;;;;;;;12.37;100.00;101352.41;5021978;28;20232;-58
2022/10/05 08:03:31;;;;;;;5.15;3.78;;;;;;;12.48;100.00;101350.66;4992660;28;20237;-52
2022/10/05 08:06:00;;;;;;;6.00;3.67;;;;;;;12.57;100.00;101350.69;4999752;28;20424;-51
2022/10/05 08:08:34;;;;;;;6.35;4.20;;;;;;;12.61;100.00;101343.66;4995797;28;20234;-52
2022/10/05 08:11:07;;;;;;;3.70;3.10;;;;;;;12.76;100.00;101334.88;4990803;28;20260;-51
2022/10/05 08:13:38;;;;;;;3.60;3.05;;;;;;;12.70;100.00;101325.19;4990733;28;20241;-51
2022/10/05 08:16:11;;;;;;;5.47;3.67;;;;;;;12.68;100.00;101320.84;4996156;28;20233;-50
2022/10/05 08:18:47;;;;;;;4.35;3.08;;;;;;;12.69;100.00;101306.78;5000199;28;20272;-51
2022/10/05 08:21:15;;;;;;;8.73;3.65;;;;;;;12.85;100.00;101317.31;5014158;28;20239;-51
2022/10/05 08:23:46;;;;;;;4.22;3.38;;;;;;;12.82;99.68;101314.66;5021917;28;20729;-53
2022/10/05 08:26:17;;;;;;;6.60;3.30;;;;;;;12.94;98.87;101312.88;5021058;28;20232;-52
2022/10/05 08:28:50;;;;;;;2.85;2.63;;;;;;;12.89;99.34;101305.88;5016611;28;20301;-51
2022/10/05 08:31:20;;;;;;;4.75;2.92;;;;;;;12.98;99.37;101299.69;5019064;28;20237;-52
2022/10/05 08:33:55;;;;;;;6.22;2.88;;;;;;;13.04;98.28;101299.69;5000512;28;20237;-53
2022/10/05 08:36:30;;;;;;;4.00;3.38;;;;;;;13.13;98.32;101288.25;5002665;28;20271;-51
2022/10/05 08:39:00;;;;;;;3.95;2.97;;;;;;;13.17;98.76;101295.28;4996330;28;20237;-51
2022/10/05 08:41:59;;;;;;;12.73;4.10;;;;;;;13.37;97.09;101287.31;4997514;28;20253;-51
2022/10/05 08:44:48;;;;;;;5.65;3.78;;;;;;;13.35;96.49;101292.59;5003084;28;20236;-52
2022/10/05 08:47:40;;;;;;;5.72;3.17;;;;;;;13.60;96.41;101288.09;5006406;28;20241;-51
2022/10/05 08:50:22;;;;;;;5.75;3.35;;;;;;;13.70;95.86;101291.59;4999511;28;20236;-50
2022/10/05 08:53:11;;;;;;;5.05;3.15;;;;;;;13.76;94.45;101283.66;5003149;28;20244;-49
2022/10/05 08:55:46;;;;;;;4.13;2.83;;;;;;;13.79;95.12;101275.72;5003799;28;20316;-51
2022/10/05 08:58:31;;;;;;;4.80;3.03;;;;;;;13.92;94.01;101270.34;5018986;28;20240;-50
2022/10/05 09:01:01;;;;;;;3.45;3.15;;;;;;;13.98;93.79;101267.69;5032168;28;20228;-53
2022/10/05 09:03:50;;;;;;;3.80;2.83;;;;;;;14.02;94.20;101275.56;5028891;28;20229;-51
2022/10/05 09:06:43;;;;;;;7.70;3.78;;;;;;;14.15;92.18;101272.84;5023900;28;20241;-52
2022/10/05 09:09:26;;;;;;;5.32;2.85;;;;;;;14.12;93.35;101270.22;5008437;28;20240;-51
2022/10/05 09:12:05;;;;;;;3.28;2.92;;;;;;;14.16;93.98;101270.19;5006567;28;20233;-52
2022/10/05 09:14:47;;;;;;;4.25;3.13;;;;;;;14.21;93.27;101276.28;5008483;28;20244;-51
2022/10/05 09:17:22;;;;;;;3.00;2.70;;;;;;;14.36;91.89;101280.63;5001516;28;20240;-51
2022/10/05 09:19:57;;;;;;;9.10;3.90;;;;;;;14.33;91.94;101278.88;5008626;28;20252;-51
2022/10/05 09:22:38;;;;;;;10.52;3.10;;;;;;;14.38;91.90;101272.66;5022987;28;20232;-51
2022/10/05 09:25:16;;;;;;;4.93;3.15;;;;;;;14.58;91.43;101272.53;5007124;28;20245;-51
2022/10/05 09:27:51;;;;;;;4.93;2.70;;;;;;;14.47;92.41;101270.81;5020775;28;20225;-50
2022/10/05 09:30:26;;;;;;;3.80;2.85;;;;;;;14.50;91.95;101269.97;5011209;28;20258;-51
2022/10/05 09:33:31;;;;;;;6.07;4.20;;;;;;;14.60;91.41;101269.00;5027329;28;20232;-51
2022/10/05 09:36:29;;;;;;;5.80;3.90;;;;;;;14.56;91.86;101261.97;4995350;28;20256;-51
2022/10/05 09:39:16;;;;;;;5.05;3.88;;;;;;;14.65;91.87;101263.66;5004924;28;20316;-51
2022/10/05 09:42:04;;;;;;;3.03;2.55;;;;;;;14.75;91.01;101260.91;5000562;28;20568;-52
2022/10/05 09:44:58;;;;;;;3.67;2.90;;;;;;;14.76;91.38;101262.66;5008651;28;20236;-53
2022/10/05 09:47:36;;;;;;;5.00;2.97;;;;;;;14.85;90.19;101260.81;5001133;28;20268;-51
2022/10/05 09:50:41;;;;;;;8.90;4.43;;;;;;;14.99;89.47;101258.91;5009225;28;20704;-52
2022/10/05 09:53:22;;;;;;;5.45;3.17;;;;;;;15.13;88.65;101262.28;5021918;28;20238;-51
2022/10/05 09:56:14;;;;;;;5.82;2.70;;;;;;;15.13;88.19;101245.50;5014296;28;20225;-50
2022/10/05 09:59:12;;;;;;;4.47;3.10;;;;;;;15.16;88.34;101242.84;5001170;28;20236;-52
2022/10/05 10:01:50;;;;;;;5.30;2.90;;;;;;;15.19;88.97;101241.03;4998281;28;20237;-55
2022/10/05 10:04:29;;;;;;;3.08;2.75;;;;;;;15.30;86.62;101237.38;5002025;28;20271;-51
2022/10/05 10:07:24;;;;;;;3.58;3.10;;;;;;;15.32;87.13;101240.91;5002376;28;20643;-51
2022/10/05 10:10:29;;;;;;;3.67;2.50;;;;;;;15.33;88.32;101232.94;5014504;28;20233;-50
2022/10/05 10:13:07;;;;;;;5.93;3.25;;;;;;;15.31;87.54;101233.88;5001793;28;20221;-50
2022/10/05 10:16:03;;;;;;;3.13;2.85;;;;;;;15.47;85.82;101235.41;5012710;28;20241;-52
2022/10/05 10:18:47;;;;;;;3.70;3.08;;;;;;;15.39;85.90;101226.69;4995408;28;20242;-52
2022/10/05 10:21:23;;;;;;;5.57;3.17;;;;;;;15.46;87.44;101233.66;5000829;28;20691;-51
2022/10/05 10:24:00;;;;;;;5.50;3.05;;;;;;;15.51;87.64;101238.00;5002457;28;20240;-52
2022/10/05 10:27:10;;;;;;;4.75;3.00;;;;;;;15.66;85.79;101236.06;5025366;28;20245;-53
2022/10/05 10:29:50;;;;;;;4.18;2.78;;;;;;;15.56;87.61;101256.47;5004099;28;22041;-52
2022/10/05 10:32:47;;;;;;;3.85;3.17;;;;;;;15.73;85.68;101256.28;5001212;28;20337;-53
2022/10/05 10:35:22;;;;;;;3.20;2.90;;;;;;;15.72;85.69;101258.06;4997828;28;20234;-51
2022/10/05 10:38:26;;;;;;;8.40;3.00;;;;;;;15.79;85.54;101252.66;5006115;28;20228;-53
2022/10/05 10:41:22;;;;;;;5.40;4.32;;;;;;;15.90;85.83;101256.00;5008169;28;20232;-51
2022/10/05 10:44:02;;;;;;;3.55;3.25;;;;;;;16.00;84.60;101262.91;5035642;28;20227;-52
2022/10/05 10:46:36;;;;;;;5.18;3.22;;;;;;;15.97;85.71;101263.00;4996245;28;20241;-51
2022/10/05 10:49:14;;;;;;;7.20;3.65;;;;;;;16.00;84.28;101254.97;5010643;28;20248;-51
2022/10/05 10:51:56;;;;;;;7.63;3.10;;;;;;;16.09;85.11;101252.19;5001007;28;20579;-53
2022/10/05 10:54:41;;;;;;;4.28;3.42;;;;;;;16.30;84.03;101250.13;5022709;28;20232;-52
2022/10/05 10:57:09;;;;;;;3.67;2.67;;;;;;;16.40;82.86;101244.63;5001058;28;20690;-52
2022/10/05 11:00:16;;;;;;;5.72;3.20;;;;;;;16.41;83.38;101238.41;5002128;28;20236;-52
2022/10/05 11:03:10;;;;;;;6.32;2.90;;;;;;;16.41;84.07;101238.41;4997455;28;20242;-51
2022/10/05 11:06:21;;;;;;;3.65;2.45;;;;;;;16.42;82.78;101245.47;5010692;28;20236;-51
2022/10/05 11:09:02;;;;;;;4.65;2.90;;;;;;;16.52;82.56;101242.66;4970764;28;20241;-51
2022/10/05 11:12:12;;;;;;;5.28;2.95;;;;;;;16.70;83.49;101240.56;5014912;28;20253;-52
2022/10/05 11:14:57;;;;;;;13.65;6.90;;;;;;;17.07;81.30;101223.97;5027147;28;20233;-52
2022/10/05 11:17:30;;;;;;;3.60;3.30;;;;;;;17.24;77.94;101228.09;5023986;28;20236;-53
2022/10/05 11:20:21;;;;;;;4.45;2.92;;;;;;;17.20;78.00;101229.03;5009775;28;20240;-51
2022/10/05 11:22:57;;;;;;;4.95;3.08;;;;;;;17.25;78.53;101213.91;5001205;28;20229;-51
2022/10/05 11:25:45;;;;;;;3.85;3.15;;;;;;;17.14;78.98;101214.13;5005567;28;20247;-51
2022/10/05 11:28:27;;;;;;;2.83;2.63;;;;;;;17.19;79.45;101206.94;5004568;28;20225;-51
2022/10/05 11:31:15;;;;;;;6.68;3.28;;;;;;;17.32;79.38;101204.91;5000955;28;20264;-51
2022/10/05 11:33:53;;;;;;;3.13;2.63;;;;;;;17.54;78.70;101206.16;5006575;28;20666;-51
2022/10/05 11:36:38;;;;;;;4.80;2.67;;;;;;;17.56;78.82;101207.03;5006801;28;20338;-52
2022/10/05 11:39:19;;;;;;;5.15;3.33;;;;;;;17.56;78.95;101207.03;4998235;28;20245;-50
2022/10/05 11:42:07;;;;;;;3.92;3.17;;;;;;;17.52;79.26;101199.16;5019238;28;20221;-51
2022/10/05 11:45:05;;;;;;;7.68;3.10;;;;;;;17.45;80.81;101197.56;5002000;28;20743;-50
2022/10/05 11:47:36;;;;;;;2.83;2.58;;;;;;;17.55;80.71;101197.31;5003467;28;20292;-52
2022/10/05 11:50:10;;;;;;;5.13;2.58;;;;;;;17.45;80.87;101189.59;5023080;28;20264;-52
2022/10/05 11:52:40;;;;;;;4.70;2.45;;;;;;;17.39;81.36;101185.28;5018663;28;20397;-53
2022/10/05 11:55:18;;;;;;;4.80;2.80;;;;;;;17.37;81.63;101184.44;4993031;28;20320;-51
2022/10/05 11:57:49;;;;;;;5.18;3.05;;;;;;;17.29;81.13;101181.94;5004867;28;20241;-51
2022/10/05 12:00:18;;;;;;;3.28;2.70;;;;;;;17.30;81.93;101182.81;5015727;28;20248;-52
2022/10/05 12:03:09;;;;;;;3.50;2.72;;;;;;;17.29;82.97;101178.44;5003359;28;20747;-50